sensor_id;sensor_type;location;lat;lon;timestamp;temperature;humidity
9425;DHT22;17139;52.140;11.636;2022-07-29T00:01:50;16.10;39.10
9425;DHT22;17139;52.140;11.636;2022-07-29T00:04:19;16.10;39.10
9425;DHT22;17139;52.140;11.636;2022-07-29T00:06:48;16.10;39.10
9425;DHT22;17139;52.140;11.636;2022-07-29T00:09:16;16.10;39.10
9425;DHT22;17139;52.140;11.636;2022-07-29T00:11:43;16.10;39.10
9425;DHT22;17139;52.140;11.636;2022-07-29T00:14:11;16.10;39.10
9425;DHT22;17139;52.140;11.636;2022-07-29T00:16:39;16.10;39.00
9425;DHT22;17139;52.140;11.636;2022-07-29T00:19:07;16.20;39.20
9425;DHT22;17139;52.140;11.636;2022-07-29T00:21:34;16.20;39.10
9425;DHT22;17139;52.140;11.636;2022-07-29T00:24:03;16.20;39.10
9425;DHT22;17139;52.140;11.636;2022-07-29T00:26:31;16.20;39.20
9425;DHT22;17139;52.140;11.636;2022-07-29T00:28:59;16.20;39.20
9425;DHT22;17139;52.140;11.636;2022-07-29T00:31:27;16.20;39.20
9425;DHT22;17139;52.140;11.636;2022-07-29T00:33:55;16.10;39.20
9425;DHT22;17139;52.140;11.636;2022-07-29T00:36:22;16.10;39.20
9425;DHT22;17139;52.140;11.636;2022-07-29T00:38:49;16.10;39.20
9425;DHT22;17139;52.140;11.636;2022-07-29T00:41:18;16.10;39.30
9425;DHT22;17139;52.140;11.636;2022-07-29T00:43:46;16.10;39.30
9425;DHT22;17139;52.140;11.636;2022-07-29T00:46:14;16.00;39.20
9425;DHT22;17139;52.140;11.636;2022-07-29T00:48:42;16.00;39.30
9425;DHT22;17139;52.140;11.636;2022-07-29T00:51:10;15.90;39.30
9425;DHT22;17139;52.140;11.636;2022-07-29T00:53:38;15.90;39.30
9425;DHT22;17139;52.140;11.636;2022-07-29T00:56:06;15.90;39.30
9425;DHT22;17139;52.140;11.636;2022-07-29T00:58:35;15.90;39.40
9425;DHT22;17139;52.140;11.636;2022-07-29T01:01:02;15.80;39.40
9425;DHT22;17139;52.140;11.636;2022-07-29T01:03:30;15.80;39.40
9425;DHT22;17139;52.140;11.636;2022-07-29T01:06:00;15.80;39.40
9425;DHT22;17139;52.140;11.636;2022-07-29T01:08:28;15.80;39.50
9425;DHT22;17139;52.140;11.636;2022-07-29T01:10:56;15.70;39.40
9425;DHT22;17139;52.140;11.636;2022-07-29T01:13:25;15.70;39.40
9425;DHT22;17139;52.140;11.636;2022-07-29T01:15:58;15.70;39.50
9425;DHT22;17139;52.140;11.636;2022-07-29T01:18:32;15.70;39.50
9425;DHT22;17139;52.140;11.636;2022-07-29T01:21:24;15.60;39.50
9425;DHT22;17139;52.140;11.636;2022-07-29T01:24:14;15.90;40.00
9425;DHT22;17139;52.140;11.636;2022-07-29T01:26:47;15.70;39.50
9425;DHT22;17139;52.140;11.636;2022-07-29T01:29:24;15.70;39.50
9425;DHT22;17139;52.140;11.636;2022-07-29T01:31:57;16.10;40.20
9425;DHT22;17139;52.140;11.636;2022-07-29T01:34:31;16.00;39.50
9425;DHT22;17139;52.140;11.636;2022-07-29T01:37:10;15.80;39.50
9425;DHT22;17139;52.140;11.636;2022-07-29T01:39:41;15.70;39.60
9425;DHT22;17139;52.140;11.636;2022-07-29T01:42:15;15.70;39.70
9425;DHT22;17139;52.140;11.636;2022-07-29T01:44:53;15.60;39.80
9425;DHT22;17139;52.140;11.636;2022-07-29T01:47:26;15.60;39.90
9425;DHT22;17139;52.140;11.636;2022-07-29T01:49:56;15.50;39.90
9425;DHT22;17139;52.140;11.636;2022-07-29T01:52:31;15.50;39.90
9425;DHT22;17139;52.140;11.636;2022-07-29T01:55:06;15.40;40.00
9425;DHT22;17139;52.140;11.636;2022-07-29T01:57:36;15.30;40.00
9425;DHT22;17139;52.140;11.636;2022-07-29T02:00:08;16.00;41.10
9425;DHT22;17139;52.140;11.636;2022-07-29T02:02:37;15.70;40.10
9425;DHT22;17139;52.140;11.636;2022-07-29T02:05:09;15.50;40.10
9425;DHT22;17139;52.140;11.636;2022-07-29T02:07:37;15.90;41.30
9425;DHT22;17139;52.140;11.636;2022-07-29T02:10:08;15.70;40.20
9425;DHT22;17139;52.140;11.636;2022-07-29T02:12:36;15.40;40.40
9425;DHT22;17139;52.140;11.636;2022-07-29T02:15:07;15.20;40.40
9425;DHT22;17139;52.140;11.636;2022-07-29T02:17:40;15.20;40.60
9425;DHT22;17139;52.140;11.636;2022-07-29T02:20:09;15.20;40.70
9425;DHT22;17139;52.140;11.636;2022-07-29T02:22:38;15.10;40.70
9425;DHT22;17139;52.140;11.636;2022-07-29T02:25:07;15.10;40.70
9425;DHT22;17139;52.140;11.636;2022-07-29T02:27:35;15.10;40.60
9425;DHT22;17139;52.140;11.636;2022-07-29T02:30:06;15.00;40.60
9425;DHT22;17139;52.140;11.636;2022-07-29T02:32:37;15.10;41.20
9425;DHT22;17139;52.140;11.636;2022-07-29T02:35:08;15.60;41.80
9425;DHT22;17139;52.140;11.636;2022-07-29T02:37:36;15.50;40.60
9425;DHT22;17139;52.140;11.636;2022-07-29T02:40:04;15.40;40.60
9425;DHT22;17139;52.140;11.636;2022-07-29T02:42:33;15.60;41.60
9425;DHT22;17139;52.140;11.636;2022-07-29T02:45:04;15.50;40.60
9425;DHT22;17139;52.140;11.636;2022-07-29T02:47:34;15.40;40.70
9425;DHT22;17139;52.140;11.636;2022-07-29T02:50:07;15.20;40.80
9425;DHT22;17139;52.140;11.636;2022-07-29T02:52:41;15.20;40.80
9425;DHT22;17139;52.140;11.636;2022-07-29T02:55:15;15.20;40.80
9425;DHT22;17139;52.140;11.636;2022-07-29T02:57:46;15.10;40.80
9425;DHT22;17139;52.140;11.636;2022-07-29T03:00:15;15.10;40.80
9425;DHT22;17139;52.140;11.636;2022-07-29T03:02:45;15.10;40.90
9425;DHT22;17139;52.140;11.636;2022-07-29T03:05:18;15.10;40.90
9425;DHT22;17139;52.140;11.636;2022-07-29T03:07:49;15.10;40.90
9425;DHT22;17139;52.140;11.636;2022-07-29T03:10:18;15.10;40.80
9425;DHT22;17139;52.140;11.636;2022-07-29T03:12:46;15.10;40.80
9425;DHT22;17139;52.140;11.636;2022-07-29T03:15:13;15.10;40.90
9425;DHT22;17139;52.140;11.636;2022-07-29T03:17:41;15.10;41.30
9425;DHT22;17139;52.140;11.636;2022-07-29T03:20:10;15.10;40.90
9425;DHT22;17139;52.140;11.636;2022-07-29T03:22:41;15.10;41.00
9425;DHT22;17139;52.140;11.636;2022-07-29T03:25:13;15.10;41.00
9425;DHT22;17139;52.140;11.636;2022-07-29T03:27:40;15.10;41.00
9425;DHT22;17139;52.140;11.636;2022-07-29T03:30:08;15.00;40.90
9425;DHT22;17139;52.140;11.636;2022-07-29T03:32:37;15.10;41.10
9425;DHT22;17139;52.140;11.636;2022-07-29T03:35:05;15.10;41.00
9425;DHT22;17139;52.140;11.636;2022-07-29T03:37:32;15.10;41.00
9425;DHT22;17139;52.140;11.636;2022-07-29T03:40:06;15.10;41.00
9425;DHT22;17139;52.140;11.636;2022-07-29T03:42:36;15.10;41.10
9425;DHT22;17139;52.140;11.636;2022-07-29T03:45:08;15.10;41.20
9425;DHT22;17139;52.140;11.636;2022-07-29T03:47:38;15.10;41.20
9425;DHT22;17139;52.140;11.636;2022-07-29T03:50:07;15.00;41.20
9425;DHT22;17139;52.140;11.636;2022-07-29T03:52:35;15.10;41.30
9425;DHT22;17139;52.140;11.636;2022-07-29T03:55:05;15.50;42.60
9425;DHT22;17139;52.140;11.636;2022-07-29T03:57:33;15.40;41.40
9425;DHT22;17139;52.140;11.636;2022-07-29T04:00:02;15.30;41.30
9425;DHT22;17139;52.140;11.636;2022-07-29T04:02:31;15.20;41.30
9425;DHT22;17139;52.140;11.636;2022-07-29T04:04:59;15.20;41.50
9425;DHT22;17139;52.140;11.636;2022-07-29T04:07:26;15.10;41.30
9425;DHT22;17139;52.140;11.636;2022-07-29T04:09:53;15.10;41.40
9425;DHT22;17139;52.140;11.636;2022-07-29T04:12:22;15.20;41.40
9425;DHT22;17139;52.140;11.636;2022-07-29T04:14:49;15.20;41.50
9425;DHT22;17139;52.140;11.636;2022-07-29T04:17:16;15.10;41.50
9425;DHT22;17139;52.140;11.636;2022-07-29T04:19:43;15.10;41.50
9425;DHT22;17139;52.140;11.636;2022-07-29T04:22:10;15.10;41.50
9425;DHT22;17139;52.140;11.636;2022-07-29T04:24:37;15.20;41.50
9425;DHT22;17139;52.140;11.636;2022-07-29T04:27:04;15.20;41.60
9425;DHT22;17139;52.140;11.636;2022-07-29T04:29:33;15.20;41.60
9425;DHT22;17139;52.140;11.636;2022-07-29T04:32:01;16.10;43.40
9425;DHT22;17139;52.140;11.636;2022-07-29T04:34:28;15.80;41.90
9425;DHT22;17139;52.140;11.636;2022-07-29T04:36:55;15.60;41.80
9425;DHT22;17139;52.140;11.636;2022-07-29T04:39:22;15.50;42.50
9425;DHT22;17139;52.140;11.636;2022-07-29T04:41:51;15.50;42.00
9425;DHT22;17139;52.140;11.636;2022-07-29T04:44:21;15.40;41.90
9425;DHT22;17139;52.140;11.636;2022-07-29T04:46:49;15.50;42.00
9425;DHT22;17139;52.140;11.636;2022-07-29T04:49:17;15.50;42.00
9425;DHT22;17139;52.140;11.636;2022-07-29T04:51:44;15.50;42.00
9425;DHT22;17139;52.140;11.636;2022-07-29T04:54:11;15.50;42.00
9425;DHT22;17139;52.140;11.636;2022-07-29T04:56:38;15.50;41.90
9425;DHT22;17139;52.140;11.636;2022-07-29T04:59:05;15.80;43.00
9425;DHT22;17139;52.140;11.636;2022-07-29T05:01:33;15.80;42.00
9425;DHT22;17139;52.140;11.636;2022-07-29T05:04:01;15.80;42.00
9425;DHT22;17139;52.140;11.636;2022-07-29T05:06:29;15.90;42.00
9425;DHT22;17139;52.140;11.636;2022-07-29T05:08:56;15.80;41.90
9425;DHT22;17139;52.140;11.636;2022-07-29T05:11:23;15.80;42.00
9425;DHT22;17139;52.140;11.636;2022-07-29T05:13:50;15.90;42.10
9425;DHT22;17139;52.140;11.636;2022-07-29T05:16:17;15.90;42.00
9425;DHT22;17139;52.140;11.636;2022-07-29T05:18:44;15.90;42.00
9425;DHT22;17139;52.140;11.636;2022-07-29T05:21:13;15.90;42.00
9425;DHT22;17139;52.140;11.636;2022-07-29T05:23:40;15.90;42.10
9425;DHT22;17139;52.140;11.636;2022-07-29T05:26:07;15.90;42.10
9425;DHT22;17139;52.140;11.636;2022-07-29T05:28:34;15.90;42.20
9425;DHT22;17139;52.140;11.636;2022-07-29T05:31:01;16.10;42.30
9425;DHT22;17139;52.140;11.636;2022-07-29T05:33:29;16.00;42.10
9425;DHT22;17139;52.140;11.636;2022-07-29T05:35:56;16.60;43.30
9425;DHT22;17139;52.140;11.636;2022-07-29T05:38:24;16.60;42.30
9425;DHT22;17139;52.140;11.636;2022-07-29T05:40:52;16.50;42.30
9425;DHT22;17139;52.140;11.636;2022-07-29T05:43:19;16.70;43.10
9425;DHT22;17139;52.140;11.636;2022-07-29T05:45:46;16.70;42.40
9425;DHT22;17139;52.140;11.636;2022-07-29T05:48:14;16.70;42.40
9425;DHT22;17139;52.140;11.636;2022-07-29T05:50:41;16.80;42.50
9425;DHT22;17139;52.140;11.636;2022-07-29T05:53:08;16.80;42.50
9425;DHT22;17139;52.140;11.636;2022-07-29T05:55:37;16.90;42.50
9425;DHT22;17139;52.140;11.636;2022-07-29T05:58:04;16.80;42.30
9425;DHT22;17139;52.140;11.636;2022-07-29T06:00:31;16.80;42.50
9425;DHT22;17139;52.140;11.636;2022-07-29T06:02:58;16.80;42.50
9425;DHT22;17139;52.140;11.636;2022-07-29T06:05:25;16.70;42.50
9425;DHT22;17139;52.140;11.636;2022-07-29T06:07:52;16.80;42.60
9425;DHT22;17139;52.140;11.636;2022-07-29T06:10:20;17.10;43.20
9425;DHT22;17139;52.140;11.636;2022-07-29T06:12:49;17.20;42.60
9425;DHT22;17139;52.140;11.636;2022-07-29T06:15:16;17.30;42.60
9425;DHT22;17139;52.140;11.636;2022-07-29T06:17:43;17.60;42.90
9425;DHT22;17139;52.140;11.636;2022-07-29T06:20:11;17.70;42.30
9425;DHT22;17139;52.140;11.636;2022-07-29T06:22:38;17.60;42.90
9425;DHT22;17139;52.140;11.636;2022-07-29T06:25:06;17.60;42.30
9425;DHT22;17139;52.140;11.636;2022-07-29T06:27:33;17.50;42.40
9425;DHT22;17139;52.140;11.636;2022-07-29T06:30:03;17.60;42.30
9425;DHT22;17139;52.140;11.636;2022-07-29T06:32:32;17.70;42.30
9425;DHT22;17139;52.140;11.636;2022-07-29T06:35:00;17.80;42.20
9425;DHT22;17139;52.140;11.636;2022-07-29T06:37:27;18.00;42.00
9425;DHT22;17139;52.140;11.636;2022-07-29T06:39:54;18.10;41.90
9425;DHT22;17139;52.140;11.636;2022-07-29T06:42:36;18.20;41.80
9425;DHT22;17139;52.140;11.636;2022-07-29T06:45:05;18.20;41.80
9425;DHT22;17139;52.140;11.636;2022-07-29T06:47:33;19.00;42.00
9425;DHT22;17139;52.140;11.636;2022-07-29T06:50:00;18.60;41.50
9425;DHT22;17139;52.140;11.636;2022-07-29T06:52:28;18.40;41.60
9425;DHT22;17139;52.140;11.636;2022-07-29T06:54:55;18.80;42.30
9425;DHT22;17139;52.140;11.636;2022-07-29T06:57:22;18.60;41.70
9425;DHT22;17139;52.140;11.636;2022-07-29T06:59:50;18.50;41.90
9425;DHT22;17139;52.140;11.636;2022-07-29T07:02:19;18.40;42.00
9425;DHT22;17139;52.140;11.636;2022-07-29T07:04:47;18.30;42.00
9425;DHT22;17139;52.140;11.636;2022-07-29T07:07:14;18.40;42.00
9425;DHT22;17139;52.140;11.636;2022-07-29T07:09:42;18.40;42.00
9425;DHT22;17139;52.140;11.636;2022-07-29T07:12:09;18.50;41.90
9425;DHT22;17139;52.140;11.636;2022-07-29T07:14:38;18.50;41.90
9425;DHT22;17139;52.140;11.636;2022-07-29T07:17:06;18.50;41.90
9425;DHT22;17139;52.140;11.636;2022-07-29T07:19:35;18.50;42.00
9425;DHT22;17139;52.140;11.636;2022-07-29T07:22:03;18.90;42.30
9425;DHT22;17139;52.140;11.636;2022-07-29T07:24:31;18.90;41.80
9425;DHT22;17139;52.140;11.636;2022-07-29T07:26:58;18.90;41.80
9425;DHT22;17139;52.140;11.636;2022-07-29T07:29:25;19.10;42.10
9425;DHT22;17139;52.140;11.636;2022-07-29T07:31:53;19.10;41.80
9425;DHT22;17139;52.140;11.636;2022-07-29T07:34:20;19.10;41.70
9425;DHT22;17139;52.140;11.636;2022-07-29T07:36:49;19.20;41.80
9425;DHT22;17139;52.140;11.636;2022-07-29T07:39:17;19.20;41.80
9425;DHT22;17139;52.140;11.636;2022-07-29T07:41:44;19.20;41.80
9425;DHT22;17139;52.140;11.636;2022-07-29T07:44:11;19.20;41.80
9425;DHT22;17139;52.140;11.636;2022-07-29T07:46:39;19.10;41.80
9425;DHT22;17139;52.140;11.636;2022-07-29T07:49:06;19.10;41.90
9425;DHT22;17139;52.140;11.636;2022-07-29T07:51:33;18.90;41.80
9425;DHT22;17139;52.140;11.636;2022-07-29T07:54:02;18.90;42.00
9425;DHT22;17139;52.140;11.636;2022-07-29T07:56:30;18.80;42.00
9425;DHT22;17139;52.140;11.636;2022-07-29T07:58:57;19.50;41.90
9425;DHT22;17139;52.140;11.636;2022-07-29T08:01:24;19.30;41.60
9425;DHT22;17139;52.140;11.636;2022-07-29T08:03:51;19.10;41.90
9425;DHT22;17139;52.140;11.636;2022-07-29T08:06:19;19.50;42.10
9425;DHT22;17139;52.140;11.636;2022-07-29T08:08:46;19.30;41.70
9425;DHT22;17139;52.140;11.636;2022-07-29T08:11:14;19.20;41.90
9425;DHT22;17139;52.140;11.636;2022-07-29T08:13:43;19.10;42.00
9425;DHT22;17139;52.140;11.636;2022-07-29T08:16:10;19.20;42.10
9425;DHT22;17139;52.140;11.636;2022-07-29T08:18:42;19.30;42.10
9425;DHT22;17139;52.140;11.636;2022-07-29T08:21:10;19.40;42.10
9425;DHT22;17139;52.140;11.636;2022-07-29T08:23:37;19.50;42.00
9425;DHT22;17139;52.140;11.636;2022-07-29T08:26:05;19.60;41.90
9425;DHT22;17139;52.140;11.636;2022-07-29T08:28:38;19.70;42.40
9425;DHT22;17139;52.140;11.636;2022-07-29T08:31:06;19.80;41.70
9425;DHT22;17139;52.140;11.636;2022-07-29T08:33:33;20.10;41.80
9425;DHT22;17139;52.140;11.636;2022-07-29T08:36:01;20.10;41.40
9425;DHT22;17139;52.140;11.636;2022-07-29T08:38:28;20.10;41.50
9425;DHT22;17139;52.140;11.636;2022-07-29T08:40:55;20.10;41.60
9425;DHT22;17139;52.140;11.636;2022-07-29T08:43:23;20.20;41.60
9425;DHT22;17139;52.140;11.636;2022-07-29T08:45:52;20.30;41.50
9425;DHT22;17139;52.140;11.636;2022-07-29T08:48:20;20.30;41.50
9425;DHT22;17139;52.140;11.636;2022-07-29T08:50:50;20.40;41.50
9425;DHT22;17139;52.140;11.636;2022-07-29T08:53:19;20.20;41.50
9425;DHT22;17139;52.140;11.636;2022-07-29T08:55:48;20.10;41.70
9425;DHT22;17139;52.140;11.636;2022-07-29T08:58:16;20.10;41.90
9425;DHT22;17139;52.140;11.636;2022-07-29T09:00:46;20.20;42.00
9425;DHT22;17139;52.140;11.636;2022-07-29T09:03:19;20.20;41.90
9425;DHT22;17139;52.140;11.636;2022-07-29T09:05:47;20.30;41.90
9425;DHT22;17139;52.140;11.636;2022-07-29T09:08:16;20.30;42.00
9425;DHT22;17139;52.140;11.636;2022-07-29T09:10:44;20.30;42.00
9425;DHT22;17139;52.140;11.636;2022-07-29T09:13:13;20.30;42.00
9425;DHT22;17139;52.140;11.636;2022-07-29T09:15:40;20.30;42.10
9425;DHT22;17139;52.140;11.636;2022-07-29T09:18:08;21.10;41.50
9425;DHT22;17139;52.140;11.636;2022-07-29T09:20:37;20.70;41.40
9425;DHT22;17139;52.140;11.636;2022-07-29T09:23:22;20.60;41.70
9425;DHT22;17139;52.140;11.636;2022-07-29T09:25:49;20.50;41.90
9425;DHT22;17139;52.140;11.636;2022-07-29T09:28:17;20.50;41.80
9425;DHT22;17139;52.140;11.636;2022-07-29T09:30:51;20.60;41.90
9425;DHT22;17139;52.140;11.636;2022-07-29T09:33:19;20.60;42.00
9425;DHT22;17139;52.140;11.636;2022-07-29T09:35:58;20.70;41.80
9425;DHT22;17139;52.140;11.636;2022-07-29T09:38:26;20.80;41.90
9425;DHT22;17139;52.140;11.636;2022-07-29T09:40:56;20.80;41.80
9425;DHT22;17139;52.140;11.636;2022-07-29T09:43:24;21.00;41.70
9425;DHT22;17139;52.140;11.636;2022-07-29T09:45:51;21.40;41.10
9425;DHT22;17139;52.140;11.636;2022-07-29T09:48:20;21.40;41.20
9425;DHT22;17139;52.140;11.636;2022-07-29T09:50:50;21.30;41.30
9425;DHT22;17139;52.140;11.636;2022-07-29T09:53:31;21.40;41.10
9425;DHT22;17139;52.140;11.636;2022-07-29T09:55:59;21.50;41.20
9425;DHT22;17139;52.140;11.636;2022-07-29T09:58:27;21.40;41.40
9425;DHT22;17139;52.140;11.636;2022-07-29T10:00:55;21.40;41.20
9425;DHT22;17139;52.140;11.636;2022-07-29T10:03:23;21.50;41.30
9425;DHT22;17139;52.140;11.636;2022-07-29T10:06:06;21.60;41.20
9425;DHT22;17139;52.140;11.636;2022-07-29T10:08:34;21.80;41.10
9425;DHT22;17139;52.140;11.636;2022-07-29T10:11:10;21.80;41.00
9425;DHT22;17139;52.140;11.636;2022-07-29T10:13:38;21.90;40.90
9425;DHT22;17139;52.140;11.636;2022-07-29T10:16:06;22.00;40.80
9425;DHT22;17139;52.140;11.636;2022-07-29T10:18:34;22.00;40.70
9425;DHT22;17139;52.140;11.636;2022-07-29T10:21:02;22.00;40.40
9425;DHT22;17139;52.140;11.636;2022-07-29T10:23:34;22.10;40.60
9425;DHT22;17139;52.140;11.636;2022-07-29T10:26:02;22.30;40.80
9425;DHT22;17139;52.140;11.636;2022-07-29T10:28:30;22.40;40.20
9425;DHT22;17139;52.140;11.636;2022-07-29T10:31:01;22.50;40.20
9425;DHT22;17139;52.140;11.636;2022-07-29T10:33:41;22.60;40.00
9425;DHT22;17139;52.140;11.636;2022-07-29T10:36:27;22.80;39.90
9425;DHT22;17139;52.140;11.636;2022-07-29T10:39:07;22.80;39.70
9425;DHT22;17139;52.140;11.636;2022-07-29T10:41:50;23.00;39.70
9425;DHT22;17139;52.140;11.636;2022-07-29T10:44:21;23.10;39.60
9425;DHT22;17139;52.140;11.636;2022-07-29T10:46:51;23.20;39.40
9425;DHT22;17139;52.140;11.636;2022-07-29T10:49:19;23.30;39.40
9425;DHT22;17139;52.140;11.636;2022-07-29T10:52:01;23.40;38.90
9425;DHT22;17139;52.140;11.636;2022-07-29T10:54:44;23.50;39.00
9425;DHT22;17139;52.140;11.636;2022-07-29T10:57:21;23.50;38.90
9425;DHT22;17139;52.140;11.636;2022-07-29T11:02:44;23.60;38.90
9425;DHT22;17139;52.140;11.636;2022-07-29T11:05:14;24.20;36.80
9425;DHT22;17139;52.140;11.636;2022-07-29T11:08:17;24.10;37.90
9425;DHT22;17139;52.140;11.636;2022-07-29T11:10:49;24.20;38.10
9425;DHT22;17139;52.140;11.636;2022-07-29T11:13:48;24.20;38.10
9425;DHT22;17139;52.140;11.636;2022-07-29T11:16:17;24.30;38.10
9425;DHT22;17139;52.140;11.636;2022-07-29T11:19:20;24.20;38.00
9425;DHT22;17139;52.140;11.636;2022-07-29T11:21:49;24.30;37.90
9425;DHT22;17139;52.140;11.636;2022-07-29T11:24:19;24.30;38.00
9425;DHT22;17139;52.140;11.636;2022-07-29T11:27:08;24.50;38.00
9425;DHT22;17139;52.140;11.636;2022-07-29T11:29:39;24.80;38.00
9425;DHT22;17139;52.140;11.636;2022-07-29T11:32:11;25.00;37.60
9425;DHT22;17139;52.140;11.636;2022-07-29T11:34:40;25.20;37.30
9425;DHT22;17139;52.140;11.636;2022-07-29T11:37:23;25.40;37.20
9425;DHT22;17139;52.140;11.636;2022-07-29T11:40:14;25.60;36.60
9425;DHT22;17139;52.140;11.636;2022-07-29T11:42:47;26.40;34.30
9425;DHT22;17139;52.140;11.636;2022-07-29T11:45:18;26.00;35.30
9425;DHT22;17139;52.140;11.636;2022-07-29T11:47:50;25.80;35.90
9425;DHT22;17139;52.140;11.636;2022-07-29T11:50:31;25.80;36.10
9425;DHT22;17139;52.140;11.636;2022-07-29T11:52:59;25.80;36.30
9425;DHT22;17139;52.140;11.636;2022-07-29T11:55:26;25.80;36.30
9425;DHT22;17139;52.140;11.636;2022-07-29T11:57:57;25.80;36.30
9425;DHT22;17139;52.140;11.636;2022-07-29T12:00:28;25.90;36.30
9425;DHT22;17139;52.140;11.636;2022-07-29T12:02:57;26.00;36.40
9425;DHT22;17139;52.140;11.636;2022-07-29T12:05:36;26.00;35.80
9425;DHT22;17139;52.140;11.636;2022-07-29T12:08:09;26.30;34.30
9425;DHT22;17139;52.140;11.636;2022-07-29T12:10:37;26.10;35.00
9425;DHT22;17139;52.140;11.636;2022-07-29T12:13:06;26.00;35.60
9425;DHT22;17139;52.140;11.636;2022-07-29T12:15:34;26.20;33.80
9425;DHT22;17139;52.140;11.636;2022-07-29T12:18:12;26.10;35.20
9425;DHT22;17139;52.140;11.636;2022-07-29T12:20:40;26.20;35.40
9425;DHT22;17139;52.140;11.636;2022-07-29T12:23:08;26.20;35.70
9425;DHT22;17139;52.140;11.636;2022-07-29T12:25:38;26.40;35.60
9425;DHT22;17139;52.140;11.636;2022-07-29T12:28:09;26.50;35.40
9425;DHT22;17139;52.140;11.636;2022-07-29T12:30:42;26.70;35.30
9425;DHT22;17139;52.140;11.636;2022-07-29T12:33:15;26.90;35.20
9425;DHT22;17139;52.140;11.636;2022-07-29T12:35:44;27.10;35.20
9425;DHT22;17139;52.140;11.636;2022-07-29T12:38:12;27.20;34.90
9425;DHT22;17139;52.140;11.636;2022-07-29T12:40:39;27.40;35.00
9425;DHT22;17139;52.140;11.636;2022-07-29T12:43:10;27.90;32.20
9425;DHT22;17139;52.140;11.636;2022-07-29T12:45:39;27.90;33.70
9425;DHT22;17139;52.140;11.636;2022-07-29T12:48:07;28.00;34.00
9425;DHT22;17139;52.140;11.636;2022-07-29T12:50:36;28.20;32.70
9425;DHT22;17139;52.140;11.636;2022-07-29T12:53:11;28.30;33.80
9425;DHT22;17139;52.140;11.636;2022-07-29T12:55:42;28.30;33.80
9425;DHT22;17139;52.140;11.636;2022-07-29T12:58:11;28.30;34.00
9425;DHT22;17139;52.140;11.636;2022-07-29T13:00:39;28.30;33.80
9425;DHT22;17139;52.140;11.636;2022-07-29T13:03:06;28.40;34.10
9425;DHT22;17139;52.140;11.636;2022-07-29T13:05:42;28.40;33.90
9425;DHT22;17139;52.140;11.636;2022-07-29T13:08:12;28.30;33.80
9425;DHT22;17139;52.140;11.636;2022-07-29T13:10:40;28.00;34.00
9425;DHT22;17139;52.140;11.636;2022-07-29T13:13:08;27.90;34.30
9425;DHT22;17139;52.140;11.636;2022-07-29T13:15:37;27.80;34.40
9425;DHT22;17139;52.140;11.636;2022-07-29T13:18:26;27.90;33.40
9425;DHT22;17139;52.140;11.636;2022-07-29T13:20:54;27.90;34.10
9425;DHT22;17139;52.140;11.636;2022-07-29T13:23:22;27.80;34.30
9425;DHT22;17139;52.140;11.636;2022-07-29T13:25:49;28.00;32.70
9425;DHT22;17139;52.140;11.636;2022-07-29T13:28:16;28.00;33.60
9425;DHT22;17139;52.140;11.636;2022-07-29T13:30:45;28.00;34.00
9425;DHT22;17139;52.140;11.636;2022-07-29T13:33:14;28.00;33.70
9425;DHT22;17139;52.140;11.636;2022-07-29T13:35:41;28.00;33.60
9425;DHT22;17139;52.140;11.636;2022-07-29T13:38:09;28.00;34.00
9425;DHT22;17139;52.140;11.636;2022-07-29T13:40:37;28.10;34.00
9425;DHT22;17139;52.140;11.636;2022-07-29T13:43:04;28.10;33.90
9425;DHT22;17139;52.140;11.636;2022-07-29T13:45:31;28.10;34.10
9425;DHT22;17139;52.140;11.636;2022-07-29T13:48:00;28.10;34.00
9425;DHT22;17139;52.140;11.636;2022-07-29T13:50:27;28.10;33.80
9425;DHT22;17139;52.140;11.636;2022-07-29T13:52:54;28.10;33.90
9425;DHT22;17139;52.140;11.636;2022-07-29T13:55:22;28.10;34.00
9425;DHT22;17139;52.140;11.636;2022-07-29T13:57:49;28.20;34.60
9425;DHT22;17139;52.140;11.636;2022-07-29T14:00:17;28.20;34.00
9425;DHT22;17139;52.140;11.636;2022-07-29T14:02:45;29.10;29.80
9425;DHT22;17139;52.140;11.636;2022-07-29T14:05:14;28.90;31.90
9425;DHT22;17139;52.140;11.636;2022-07-29T14:07:41;28.90;32.30
9425;DHT22;17139;52.140;11.636;2022-07-29T14:10:09;28.90;32.60
9425;DHT22;17139;52.140;11.636;2022-07-29T14:12:36;29.00;32.70
9425;DHT22;17139;52.140;11.636;2022-07-29T14:15:04;29.10;32.90
9425;DHT22;17139;52.140;11.636;2022-07-29T14:17:32;29.10;32.70
9425;DHT22;17139;52.140;11.636;2022-07-29T14:19:59;29.10;32.80
9425;DHT22;17139;52.140;11.636;2022-07-29T14:22:27;29.10;32.90
9425;DHT22;17139;52.140;11.636;2022-07-29T14:24:55;29.20;32.70
9425;DHT22;17139;52.140;11.636;2022-07-29T14:27:22;29.20;32.70
9425;DHT22;17139;52.140;11.636;2022-07-29T14:29:50;29.20;32.70
9425;DHT22;17139;52.140;11.636;2022-07-29T14:32:17;29.30;32.60
9425;DHT22;17139;52.140;11.636;2022-07-29T14:34:44;29.10;32.50
9425;DHT22;17139;52.140;11.636;2022-07-29T14:37:11;29.50;29.90
9425;DHT22;17139;52.140;11.636;2022-07-29T14:39:40;29.30;31.60
9425;DHT22;17139;52.140;11.636;2022-07-29T14:42:07;29.30;31.90
9425;DHT22;17139;52.140;11.636;2022-07-29T14:44:34;29.20;32.10
9425;DHT22;17139;52.140;11.636;2022-07-29T14:47:01;29.10;32.30
9425;DHT22;17139;52.140;11.636;2022-07-29T14:49:29;29.00;32.50
9425;DHT22;17139;52.140;11.636;2022-07-29T14:51:56;29.00;32.50
9425;DHT22;17139;52.140;11.636;2022-07-29T14:54:23;29.00;32.50
9425;DHT22;17139;52.140;11.636;2022-07-29T14:56:52;28.90;32.70
9425;DHT22;17139;52.140;11.636;2022-07-29T14:59:22;28.80;32.60
9425;DHT22;17139;52.140;11.636;2022-07-29T15:01:50;28.60;32.80
9425;DHT22;17139;52.140;11.636;2022-07-29T15:04:18;28.50;32.70
9425;DHT22;17139;52.140;11.636;2022-07-29T15:06:45;29.00;29.20
9425;DHT22;17139;52.140;11.636;2022-07-29T15:09:12;28.80;31.10
9425;DHT22;17139;52.140;11.636;2022-07-29T15:11:39;28.60;31.60
9425;DHT22;17139;52.140;11.636;2022-07-29T15:14:08;29.10;28.90
9425;DHT22;17139;52.140;11.636;2022-07-29T15:16:36;28.90;30.60
9425;DHT22;17139;52.140;11.636;2022-07-29T15:19:04;28.80;31.50
9425;DHT22;17139;52.140;11.636;2022-07-29T15:21:32;28.70;31.60
9425;DHT22;17139;52.140;11.636;2022-07-29T15:23:59;28.80;31.70
9425;DHT22;17139;52.140;11.636;2022-07-29T15:26:26;28.60;31.50
9425;DHT22;17139;52.140;11.636;2022-07-29T15:28:53;28.60;31.70
9425;DHT22;17139;52.140;11.636;2022-07-29T15:31:23;28.50;31.60
9425;DHT22;17139;52.140;11.636;2022-07-29T15:33:50;28.50;31.80
9425;DHT22;17139;52.140;11.636;2022-07-29T15:36:17;28.50;32.00
9425;DHT22;17139;52.140;11.636;2022-07-29T15:38:45;28.50;31.80
9425;DHT22;17139;52.140;11.636;2022-07-29T15:41:14;28.60;30.00
9425;DHT22;17139;52.140;11.636;2022-07-29T15:43:43;28.60;31.20
9425;DHT22;17139;52.140;11.636;2022-07-29T15:46:13;28.60;31.50
9425;DHT22;17139;52.140;11.636;2022-07-29T15:48:59;28.60;31.80